createdAt,value
2023-01-20T00:01:37.308Z,42.70
2023-01-20T00:06:39.742Z,42.50
2023-01-20T00:11:44.597Z,42.80
2023-01-20T00:16:47.053Z,43.60
2023-01-20T00:21:49.544Z,39.30
2023-01-20T00:26:53.325Z,38.80
2023-01-20T00:31:55.785Z,36.20
2023-01-20T00:36:58.178Z,32.40
2023-01-20T00:42:01.941Z,31.60
2023-01-20T00:47:04.378Z,32.00
2023-01-20T00:52:07.821Z,29.95
2023-01-20T00:57:11.766Z,29.88
2023-01-20T01:02:14.314Z,26.85
2023-01-20T01:07:16.730Z,26.55
2023-01-20T01:12:20.593Z,23.35
2023-01-20T01:17:23.742Z,25.13
2023-01-20T01:22:27.012Z,26.35
2023-01-20T01:27:31.010Z,21.23
2023-01-20T01:32:33.451Z,17.58
2023-01-20T01:37:35.917Z,16.10
2023-01-20T01:42:42.006Z,16.98
2023-01-20T01:47:46.477Z,17.35
2023-01-20T01:52:50.825Z,14.23
2023-01-20T01:57:55.460Z,14.13
2023-01-20T02:02:57.948Z,12.93
2023-01-20T02:08:00.509Z,12.40
2023-01-20T02:13:04.511Z,11.20
2023-01-20T02:18:12.028Z,12.52
2023-01-20T02:23:20.816Z,11.40
2023-01-20T02:28:52.592Z,11.93
2023-01-20T02:33:59.050Z,13.57
2023-01-20T02:39:03.898Z,12.55
2023-01-20T02:44:09.861Z,13.30
2023-01-20T02:49:16.875Z,13.63
2023-01-20T02:54:21.537Z,15.25
2023-01-20T02:59:25.767Z,15.93
2023-01-20T03:04:31.669Z,17.17
2023-01-20T03:09:37.219Z,14.88
2023-01-20T03:14:39.904Z,15.27
2023-01-20T03:19:43.765Z,18.13
2023-01-20T03:24:48.515Z,20.77
2023-01-20T03:29:50.959Z,20.40
2023-01-20T03:34:56.398Z,21.40
2023-01-20T03:39:59.167Z,21.80
2023-01-20T03:45:04.633Z,21.70
2023-01-20T03:50:11.367Z,22.33
2023-01-20T03:55:16.520Z,25.60
2023-01-20T04:00:20.988Z,23.42
2023-01-20T04:05:24.896Z,24.23
2023-01-20T04:10:28.339Z,25.13
2023-01-20T04:15:33.846Z,25.20
2023-01-20T04:20:37.741Z,24.67
2023-01-20T04:25:40.249Z,23.30
2023-01-20T04:30:42.761Z,23.98
2023-01-20T04:35:46.631Z,24.42
2023-01-20T04:40:49.086Z,24.58
2023-01-20T04:45:51.704Z,23.13
2023-01-20T04:50:55.547Z,21.58
2023-01-20T04:55:57.937Z,24.17
2023-01-20T05:01:02.254Z,24.10
2023-01-20T05:06:07.031Z,24.27
2023-01-20T05:11:09.409Z,21.08
2023-01-20T05:16:12.641Z,21.60
2023-01-20T05:21:16.633Z,21.77
2023-01-20T05:26:19.076Z,21.85
2023-01-20T05:31:21.697Z,22.58
2023-01-20T05:36:25.651Z,21.93
2023-01-20T05:41:28.183Z,21.88
2023-01-20T05:46:30.751Z,25.52
2023-01-20T05:51:34.644Z,26.77
2023-01-20T05:56:37.019Z,25.42
2023-01-20T06:01:40.548Z,26.55
2023-01-20T06:06:44.402Z,27.17
2023-01-20T06:11:46.946Z,27.58
2023-01-20T06:16:49.434Z,29.20
2023-01-20T06:21:53.870Z,28.60
2023-01-20T06:26:56.323Z,28.20
2023-01-20T06:31:58.795Z,29.73
2023-01-20T06:37:02.923Z,31.00
2023-01-20T06:42:05.546Z,29.23
2023-01-20T06:47:08.039Z,27.70
2023-01-20T06:52:11.892Z,28.75
2023-01-20T06:57:14.373Z,30.23
2023-01-20T07:02:16.914Z,30.40
2023-01-20T07:07:20.823Z,29.77
2023-01-20T07:12:23.339Z,29.35
2023-01-20T07:17:25.809Z,28.73
2023-01-20T07:22:29.630Z,28.20
2023-01-20T07:27:32.280Z,27.85
2023-01-20T07:32:34.799Z,27.58
2023-01-20T07:37:38.578Z,23.98
2023-01-20T07:42:41.134Z,26.45
2023-01-20T07:47:43.574Z,24.63
2023-01-20T07:52:47.580Z,27.27
2023-01-20T07:57:50.827Z,25.67
2023-01-20T08:02:53.333Z,25.95
2023-01-20T08:07:57.251Z,24.55
2023-01-20T08:12:59.931Z,24.30
2023-01-20T08:18:03.362Z,23.42
2023-01-20T08:23:07.157Z,24.20
2023-01-20T08:28:09.690Z,25.83
2023-01-20T08:33:12.329Z,24.80
2023-01-20T08:38:16.155Z,25.48
2023-01-20T08:43:18.719Z,23.20
2023-01-20T08:48:21.475Z,25.48
2023-01-20T08:53:26.205Z,24.97
2023-01-20T08:58:29.263Z,23.10
2023-01-20T09:03:33.188Z,22.20
2023-01-20T09:08:38.038Z,25.05
2023-01-20T09:13:41.069Z,22.88
2023-01-20T09:18:44.558Z,23.83
2023-01-20T09:28:52.031Z,22.95
2023-01-20T09:33:54.558Z,23.67
2023-01-20T09:39:14.670Z,23.30
2023-01-20T09:44:25.984Z,24.30
2023-01-20T09:49:51.089Z,23.38
2023-01-20T09:54:57.526Z,23.65
2023-01-20T10:00:04.766Z,22.95
2023-01-20T10:05:12.470Z,23.45
2023-01-20T10:10:17.996Z,24.70
2023-01-20T10:15:25.511Z,23.23
2023-01-20T10:20:30.420Z,25.38
2023-01-20T10:25:37.816Z,23.25
2023-01-20T10:30:42.002Z,22.90
2023-01-20T10:35:47.323Z,23.23
2023-01-20T10:40:52.948Z,21.20
2023-01-20T10:46:02.433Z,25.02
2023-01-20T10:51:06.673Z,20.27
2023-01-20T10:56:27.134Z,20.95
2023-01-20T11:01:30.996Z,20.83
2023-01-20T11:06:34.121Z,20.60
2023-01-20T11:11:37.729Z,19.10
2023-01-20T11:16:44.837Z,19.67
2023-01-20T11:21:49.210Z,20.77
2023-01-20T11:26:51.928Z,20.33
2023-01-20T11:31:56.543Z,18.57
2023-01-20T11:37:17.590Z,20.35
2023-01-20T11:42:21.370Z,19.48
2023-01-20T11:47:26.213Z,20.60
2023-01-20T11:52:28.845Z,22.52
2023-01-20T11:57:31.603Z,22.17
2023-01-20T12:02:35.546Z,23.07
2023-01-20T12:07:40.714Z,21.35
2023-01-20T12:12:46.312Z,21.83
2023-01-20T12:17:55.194Z,23.58
2023-01-20T12:23:05.748Z,21.48
2023-01-20T12:28:13.654Z,21.50
2023-01-20T12:33:21.862Z,22.58
2023-01-20T12:38:24.922Z,23.00
2023-01-20T12:43:33.602Z,22.05
2023-01-20T12:48:42.728Z,20.80
2023-01-20T12:53:58.039Z,23.50
2023-01-20T12:59:04.376Z,24.95
2023-01-20T13:04:26.285Z,23.98
2023-01-20T13:09:41.567Z,23.10
2023-01-20T13:14:46.084Z,23.55
2023-01-20T13:19:50.215Z,26.13
2023-01-20T13:24:53.410Z,24.73
2023-01-20T13:29:57.255Z,23.70
2023-01-20T13:35:01.889Z,24.45
2023-01-20T13:40:04.979Z,22.50
2023-01-20T13:45:16.183Z,21.70
2023-01-20T13:50:24.693Z,25.27
2023-01-20T13:55:28.885Z,24.42
2023-01-20T14:00:31.415Z,23.48
2023-01-20T14:05:35.279Z,23.40
2023-01-20T14:10:37.688Z,23.73
2023-01-20T14:15:41.094Z,22.52
2023-01-20T14:25:57.141Z,21.92
2023-01-20T14:31:19.617Z,20.05
2023-01-20T14:36:23.182Z,20.70
2023-01-20T14:41:31.497Z,21.58
2023-01-20T14:46:34.965Z,20.65
2023-01-20T14:51:37.508Z,21.65
2023-01-20T14:56:47.896Z,19.67
2023-01-20T15:01:54.455Z,19.08
2023-01-20T15:06:57.897Z,17.77
2023-01-20T15:12:19.149Z,18.58
2023-01-20T15:17:22.977Z,19.65
2023-01-20T15:22:27.175Z,20.10
2023-01-20T15:27:32.174Z,20.73
2023-01-20T15:32:35.890Z,25.42
2023-01-20T15:37:38.396Z,22.55
2023-01-20T15:42:40.883Z,22.15
2023-01-20T15:47:45.169Z,23.30
2023-01-20T15:52:48.031Z,23.63
2023-01-20T15:57:52.581Z,22.30
2023-01-20T16:02:56.408Z,22.20
2023-01-20T16:07:58.889Z,24.63
2023-01-20T16:13:01.442Z,22.38
2023-01-20T16:18:05.612Z,22.80
2023-01-20T16:23:08.187Z,22.52
2023-01-20T16:28:14.416Z,21.85
2023-01-20T16:33:19.375Z,23.98
2023-01-20T16:38:23.254Z,22.70
2023-01-20T16:43:25.738Z,22.13
2023-01-20T16:48:29.556Z,22.98
2023-01-20T16:53:32.084Z,23.23
2023-01-20T16:58:34.688Z,21.70
2023-01-20T17:03:38.695Z,23.58
2023-01-20T17:08:43.843Z,24.13
2023-01-20T17:13:46.365Z,26.23
2023-01-20T17:18:51.454Z,23.77
2023-01-20T17:23:54.576Z,25.30
2023-01-20T17:28:57.635Z,26.67
2023-01-20T17:34:01.538Z,25.35
2023-01-20T17:39:04.815Z,23.05
2023-01-20T17:44:07.345Z,23.27
2023-01-20T17:49:11.202Z,23.80
2023-01-20T17:54:15.724Z,26.08
2023-01-20T17:59:18.797Z,22.40
2023-01-20T18:04:22.894Z,21.77
2023-01-20T18:09:25.506Z,27.55
2023-01-20T18:14:27.962Z,26.07
2023-01-20T18:19:31.917Z,26.38
2023-01-20T18:24:34.618Z,24.67
2023-01-20T18:29:37.106Z,23.98
2023-01-20T18:34:40.875Z,24.38
2023-01-20T18:39:43.953Z,26.67
2023-01-20T18:44:46.548Z,25.58
2023-01-20T18:49:50.419Z,25.52
2023-01-20T18:54:52.820Z,25.20
2023-01-20T18:59:55.228Z,23.35
2023-01-20T19:04:59.162Z,23.65
2023-01-20T19:10:01.729Z,23.05
2023-01-20T19:15:04.570Z,21.93
2023-01-20T19:20:09.728Z,22.00
2023-01-20T19:25:12.297Z,24.20
2023-01-20T19:30:15.462Z,22.63
2023-01-20T19:35:20.803Z,22.52
2023-01-20T19:40:23.375Z,22.23
2023-01-20T19:45:36.692Z,28.88
2023-01-20T19:50:48.579Z,25.83
2023-01-20T19:55:51.303Z,23.02
2023-01-20T20:00:53.961Z,26.43
2023-01-20T20:05:58.461Z,25.53
2023-01-20T20:11:01.990Z,25.90
2023-01-20T20:16:05.542Z,26.63
2023-01-20T20:26:13.411Z,32.63
2023-01-20T20:31:16.025Z,31.40
2023-01-20T20:36:18.762Z,29.47
2023-01-20T20:41:25.909Z,24.47
2023-01-20T20:46:28.475Z,26.80
2023-01-20T20:51:31.930Z,26.33
2023-01-20T21:01:38.391Z,30.15
2023-01-20T21:06:40.975Z,27.40
2023-01-20T21:11:43.543Z,30.33
2023-01-20T21:16:47.525Z,37.30
2023-01-20T21:21:49.965Z,33.70
2023-01-20T21:26:52.519Z,35.58
2023-01-20T21:31:57.536Z,37.80
2023-01-20T21:37:00.169Z,39.08
2023-01-20T21:42:02.666Z,42.03
2023-01-20T21:47:08.144Z,40.42
2023-01-20T21:52:29.640Z,44.25
2023-01-20T21:57:32.688Z,43.28
2023-01-20T22:02:36.699Z,37.33
2023-01-20T22:07:39.393Z,42.05
2023-01-20T22:12:42.059Z,47.60
2023-01-20T22:17:46.127Z,51.13
2023-01-20T22:22:48.776Z,64.22
2023-01-20T22:27:51.253Z,70.88
2023-01-20T22:32:55.488Z,79.90
2023-01-20T22:37:57.918Z,89.53
2023-01-20T22:43:00.517Z,84.22
2023-01-20T22:48:04.454Z,78.72
2023-01-20T22:53:07.922Z,72.80
2023-01-20T22:58:10.552Z,61.70
2023-01-20T23:03:14.636Z,51.95
2023-01-20T23:08:17.105Z,46.90
2023-01-20T23:13:19.573Z,43.65
2023-01-20T23:18:23.703Z,40.63
2023-01-20T23:23:26.601Z,38.78
2023-01-20T23:28:29.232Z,37.03
2023-01-20T23:33:33.158Z,37.67
2023-01-20T23:38:35.605Z,42.75
2023-01-20T23:43:38.025Z,43.92
2023-01-20T23:48:41.848Z,43.50
2023-01-20T23:53:44.411Z,43.95
2023-01-20T23:58:47.411Z,44.75
